Aérodrome :
LOGIN :

S'inscrire | Disclaimer

   EN    FR    IT 

 










Légende :    VFR   VFR Marginal   IFR   IFR Intensif   IFR Très Intensif
Visi : 
Plafond : 
>= 8 km
>= 3000ft
5 à 8 km
1000 à 3000 ft
1500m à 5 km
500 à 1000 ft
800 à 1500m
200 à 500 ft
< 800m
< 200 ft
Symboles :   Orages  Brouillard  Fortes neiges  Fortes précipitations  Vent > 20 kt
SIGMETs :   Divers  Orages  Givrage  Turbulence  Onde Orograph.  Cendres Volcan.







- Altitude de l'aérodrome : 49 ft
- Code IATA : GLZ


EHGR - Gilze-Rijen Airbase

DERNIER METAR :
  • 172043Z AUTO VRB02KT 9999 FEW015CB SCT024 BKN030 BKN034 01/01 Q1012 WHT

METARs EXPIRÉS :
  • 172025Z AUTO 23003KT 120V240 9999 FEW015CB SCT025 BKN030 01/00 Q1012 BLU
  • 172012Z AUTO VRB02KT 9999 FEW015CB BKN016 OVC019 01/01 Q1012 WHT
  • 171956Z AUTO 30003KT 270V330 9999 FEW015CB BKN023 OVC027 01/01 Q1012 WHT
  • 171955Z AUTO 30003KT 280V350 9999 -RA FEW007 SCT013 FEW015CB BKN026 01/01 Q1012 RESNRA GRN
  • 171940Z AUTO 31007KT 210V020 2200 -SHRASN FEW005 SCT011 BKN014 FEW015CB 01/00 Q1011 YLO
  • 171932Z AUTO 28005KT 230V360 4300 RA FEW015CB BKN028 BKN035 01/00 Q1011 GRN 31012KT 9999 SCT025 BKN035 TEMPO 3000 -SHRASN SCT005 SCT015CB
  • 171925Z AUTO 23006KT 220V280 9999 FEW015CB SCT057 BKN063 01/00 Q1010 BLU 31012KT 9999 SCT025 BKN035 TEMPO 3000 -SHRASN SCT005 SCT015CB
  • 171855Z AUTO 26005KT 9999 NCD 02/00 Q1010 BLU 31012KT 9999 SCT025 BKN035 TEMPO 3000 -SHRASN SCT005 SCT015CB
  • 171826Z AUTO 29007KT 260V320 9999 FEW009 FEW015CB SCT029 01/01 Q1010 BLU 31012KT 9999 SCT025 BKN035 TEMPO 3000 -SHRASN SCT005 SCT015CB
  • 171825Z AUTO 30008KT 260V330 9999 FEW009 FEW015CB SCT021 BKN033 02/01 Q1010 WHT 31012KT 9999 SCT025 BKN035 TEMPO 3000 -SHRASN SCT005 SCT015CB
  • 171755Z AUTO 28005KT 9999 FEW015CB SCT056 01/01 Q1009 BLU 31012KT 9999 SCT025 BKN035 TEMPO 3000 -SHRASN SCT005 SCT015CB

TAF TAF EHGR
Valide du 17 à 18h jusqu'au 18 à 06h UTC


171731Z 1718/1806 29009KT 9999 FEW015 SCT040
TEMPO 1718/1721 30013G23KT 4500 SHRAGS SCT006 SCT015CB BKN020
PROB30
TEMPO 1718/1721 2500 SHRAGS SHRASN SCT005 SCT014CBBKN020
BECMG 1800/1803 26004KT 4500 BR
PROB30 1803/1806 2000
Pas de NOTAMs connus pour ce terrain.



MET'MAP, la Météo Aéronautique d'un coup d'oeil ! - Copyright ORBIFLY Décembre 2007 - Disclaimer

ORBIFLY MET'MAP TEAM :

Programmation & Développement : Alexandra Zaïnal
Conception & Développement : Baudouin d'Aumeries
Co-Programmation & Développement : Marc-Olivier Méhu
Soutien technique & logistique : Manuel Goepfert

Contact : metmap@orbifly.com




SOURCES & CREDITS :

   NOAA